Time;durP1;ratioP1;P1;durP2;ratioP2;P2;SDS_P1;SDS_P2;PMS_P1;PMS_P2;Temp;Humidity;BMP_temperature;BMP_pressure;BME280_temperature;BME280_humidity;BME280_pressure;Samples;Min_cycle;Max_cycle;Signal;HPM_P1;HPM_P2
2022/03/22 00:01:38;;;;;;;6.70;6.35;;;;;;;8.86;57.39;102635.34;6078996;23;20022;-65
2022/03/22 00:04:05;;;;;;;4.50;4.30;;;;;;;7.16;57.75;102356.81;6090499;23;20316;-65
2022/03/22 00:06:32;;;;;;;6.45;6.13;;;;;;;8.86;57.32;102658.03;6084635;23;20073;-65
2022/03/22 00:08:59;;;;;;;4.30;4.10;;;;;;;8.81;58.16;102657.25;6091545;23;20021;-65
2022/03/22 00:11:25;;;;;;;4.95;4.60;;;;;;;8.48;57.77;102607.06;6106194;23;20092;-65
2022/03/22 00:13:53;;;;;;;5.25;4.97;;;;;;;8.55;57.55;102622.66;6068796;23;20470;-65
2022/03/22 00:16:20;;;;;;;4.40;4.20;;;;;;;8.85;57.18;102657.19;6091830;23;20052;-65
2022/03/22 00:19:06;;;;;;;4.20;3.92;;;;;;;8.59;57.09;102616.50;6070086;23;20073;-66
2022/03/22 00:21:35;;;;;;;8.18;7.53;;;;;;;8.59;56.68;102613.03;6085416;23;20474;-66
2022/03/22 00:24:02;;;;;;;4.15;3.95;;;;;;;8.85;56.93;102662.41;6084074;23;20057;-66
2022/03/22 00:26:29;;;;;;;5.35;5.15;;;;;;;8.68;56.73;102657.41;6101450;23;20018;-66
2022/03/22 00:28:55;;;;;;;4.68;4.47;;;;;;;8.61;56.44;102629.56;6077894;23;20029;-65
2022/03/22 00:31:27;;;;;;;4.97;4.70;;;;;;;8.59;56.51;102634.81;6077490;23;20036;-66
2022/03/22 00:33:54;;;;;;;4.30;4.10;;;;;;;8.67;56.22;102660.03;6086718;23;20022;-66
2022/03/22 00:36:20;;;;;;;5.00;4.70;;;;;;;8.40;56.65;102604.53;6086390;23;20034;-66
2022/03/22 00:38:47;;;;;;;4.32;4.13;;;;;;;8.58;56.52;102637.47;6058115;23;20038;-65
2022/03/22 00:41:13;;;;;;;4.72;4.43;;;;;;;7.58;56.70;102479.13;6082769;23;20081;-66
2022/03/22 00:43:40;;;;;;;6.63;6.32;;;;;;;8.69;56.65;102687.91;6079227;23;20026;-66
2022/03/22 00:46:06;;;;;;;4.95;4.65;;;;;;;8.52;57.00;102632.28;6086840;23;20026;-66
2022/03/22 00:48:33;;;;;;;6.35;6.05;;;;;;;7.63;56.24;102524.31;6081328;23;20042;-66
2022/03/22 00:50:59;;;;;;;5.15;4.68;;;;;;;7.26;56.16;102430.69;6082422;23;20097;-65
2022/03/22 00:53:26;;;;;;;5.03;4.82;;;;;;;8.60;56.13;102659.25;6059671;23;20045;-66
2022/03/22 00:55:53;;;;;;;4.03;3.83;;;;;;;8.66;55.88;102658.28;6074875;23;20099;-66
2022/03/22 00:58:19;;;;;;;4.63;4.40;;;;;;;8.58;56.17;102664.50;6081729;23;20167;-66
2022/03/22 01:00:47;;;;;;;4.55;4.35;;;;;;;8.54;55.73;102656.72;6074024;23;20052;-66
2022/03/22 01:03:14;;;;;;;4.03;3.83;;;;;;;8.27;56.92;102619.47;6084572;23;20043;-65
2022/03/22 01:05:41;;;;;;;6.05;5.75;;;;;;;8.33;57.13;102642.94;6080362;23;20042;-66
2022/03/22 01:08:10;;;;;;;4.05;3.85;;;;;;;7.99;56.40;102592.78;6043037;23;20053;-65
2022/03/22 01:10:40;;;;;;;7.38;6.88;;;;;;;8.36;57.28;102669.09;6079232;23;20169;-66
2022/03/22 01:13:08;;;;;;;4.80;4.45;;;;;;;8.26;56.86;102659.63;6084055;23;20284;-65
2022/03/22 01:15:36;;;;;;;5.82;5.57;;;;;;;6.99;57.39;102455.31;6087180;23;20014;-66
2022/03/22 01:18:08;;;;;;;5.20;4.90;;;;;;;8.17;57.25;102665.78;6081374;23;20029;-66
2022/03/22 01:20:37;;;;;;;7.00;6.60;;;;;;;8.13;57.90;102661.47;6077459;23;20027;-66
2022/03/22 01:23:07;;;;;;;4.15;3.95;;;;;;;8.08;57.72;102658.06;6085542;23;20033;-65
2022/03/22 01:25:34;;;;;;;5.90;5.60;;;;;;;8.07;57.85;102661.53;6093538;23;20049;-66
2022/03/22 01:28:04;;;;;;;4.35;4.10;;;;;;;8.03;57.53;102659.00;6082844;23;20038;-66
2022/03/22 01:30:31;;;;;;;5.45;5.25;;;;;;;8.04;57.73;102660.69;6082656;23;20038;-66
2022/03/22 01:32:58;;;;;;;4.05;3.83;;;;;;;6.85;56.39;102467.63;6055582;23;20230;-66
2022/03/22 01:35:29;;;;;;;6.18;5.88;;;;;;;8.03;57.14;102662.47;6105705;23;20021;-66
2022/03/22 01:37:56;;;;;;;5.85;5.47;;;;;;;7.98;57.08;102649.44;6093001;23;20545;-68
2022/03/22 01:40:26;;;;;;;4.43;4.22;;;;;;;8.14;55.75;102655.38;6093251;23;20050;-67
2022/03/22 01:42:53;;;;;;;4.30;4.00;;;;;;;8.10;56.03;102650.22;6090469;23;20264;-66
2022/03/22 01:45:21;;;;;;;4.03;3.83;;;;;;;8.17;56.55;102657.94;6100036;23;20056;-65
2022/03/22 01:47:49;;;;;;;4.55;4.30;;;;;;;6.29;55.88;102329.81;6094922;23;20652;-66
2022/03/22 01:50:19;;;;;;;4.50;4.30;;;;;;;8.16;55.64;102651.00;6114840;23;20269;-66
2022/03/22 01:52:47;;;;;;;4.20;4.00;;;;;;;6.87;55.58;102444.97;6072993;23;20029;-66
2022/03/22 01:55:17;;;;;;;4.85;4.65;;;;;;;8.12;55.24;102653.69;6114411;23;20486;-66
2022/03/22 01:57:43;;;;;;;5.35;5.05;;;;;;;8.02;55.75;102647.66;6081884;23;20030;-66
2022/03/22 02:00:13;;;;;;;4.15;3.95;;;;;;;7.99;56.16;102645.94;6115439;23;20532;-66
2022/03/22 02:08:13;;;;;;;4.57;4.38;;;;;;;7.83;55.75;102610.38;6075693;23;20050;-66
2022/03/22 02:10:39;;;;;;;6.65;6.35;;;;;;;6.98;55.36;102453.59;6111613;23;20348;-66
2022/03/22 02:13:06;;;;;;;4.00;3.80;;;;;;;6.50;55.17;102374.84;6087941;23;20022;-66
2022/03/22 02:15:32;;;;;;;6.35;6.05;;;;;;;8.01;55.11;102653.75;6080867;23;20042;-66
2022/03/22 02:17:59;;;;;;;4.68;4.38;;;;;;;8.06;54.90;102641.53;6067223;23;20018;-66
2022/03/22 02:20:27;;;;;;;4.65;4.45;;;;;;;7.81;54.88;102601.69;6100489;23;20319;-65
2022/03/22 02:23:15;;;;;;;4.60;4.40;;;;;;;8.06;55.09;102638.91;6058630;23;20051;-66
2022/03/22 02:25:41;;;;;;;5.68;5.40;;;;;;;8.05;55.34;102638.91;6107874;23;20009;-66
2022/03/22 02:28:10;;;;;;;4.18;3.97;;;;;;;7.54;55.48;102558.41;6084495;23;20064;-66
2022/03/22 02:30:37;;;;;;;6.10;5.80;;;;;;;6.74;55.62;102450.31;6110541;23;20029;-66
2022/03/22 02:33:04;;;;;;;4.00;3.80;;;;;;;7.79;55.44;102635.66;6084786;23;20092;-66
2022/03/22 02:35:30;;;;;;;5.93;5.63;;;;;;;7.54;55.25;102572.31;6109155;23;20029;-65
2022/03/22 02:37:57;;;;;;;4.20;4.00;;;;;;;6.71;54.73;102431.19;6060921;23;20187;-67
2022/03/22 02:40:27;;;;;;;4.75;4.55;;;;;;;7.88;54.63;102633.88;6090612;23;20220;-65
2022/03/22 02:42:54;;;;;;;4.47;4.28;;;;;;;7.81;55.80;102637.41;6065772;23;20094;-68
2022/03/22 02:45:22;;;;;;;4.60;4.40;;;;;;;7.11;54.63;102507.41;6088194;23;20069;-65
2022/03/22 02:47:49;;;;;;;4.32;4.13;;;;;;;6.34;54.67;102374.97;6090950;23;20049;-67
2022/03/22 02:50:16;;;;;;;4.10;3.90;;;;;;;7.85;55.08;102634.75;6084908;23;20060;-67
2022/03/22 02:52:45;;;;;;;4.75;4.55;;;;;;;6.58;54.36;102412.19;6105555;23;20365;-67
2022/03/22 02:55:12;;;;;;;4.63;4.32;;;;;;;7.81;55.88;102629.56;6090624;23;20430;-66
2022/03/22 02:57:40;;;;;;;6.18;5.82;;;;;;;7.74;55.49;102634.84;6110775;23;20037;-66
2022/03/22 03:00:08;;;;;;;4.10;3.90;;;;;;;7.65;55.15;102628.84;6072999;23;20018;-66
2022/03/22 03:02:46;;;;;;;6.38;5.82;;;;;;;7.58;55.78;102633.28;6107573;23;20399;-67
2022/03/22 03:05:13;;;;;;;3.90;3.72;;;;;;;7.58;55.89;102641.09;6013710;23;20679;-67
2022/03/22 03:07:39;;;;;;;7.40;7.00;;;;;;;6.41;55.56;102458.38;6095909;23;20137;-66
2022/03/22 03:10:06;;;;;;;4.55;4.35;;;;;;;7.42;55.77;102629.03;6090017;23;20021;-67
2022/03/22 03:12:34;;;;;;;5.88;5.57;;;;;;;7.47;56.45;102635.94;6111370;23;20027;-66
2022/03/22 03:15:01;;;;;;;4.35;3.97;;;;;;;7.47;56.47;102641.19;6092211;23;20091;-66
2022/03/22 03:17:27;;;;;;;5.35;5.05;;;;;;;7.37;55.23;102618.63;6086970;23;20081;-67
2022/03/22 03:19:54;;;;;;;3.67;3.55;;;;;;;6.97;55.85;102551.88;6056438;23;20310;-66
2022/03/22 03:22:20;;;;;;;5.13;4.82;;;;;;;7.34;55.82;102622.13;6084368;23;20494;-67
2022/03/22 03:24:47;;;;;;;4.00;3.80;;;;;;;7.38;55.24;102641.25;6063736;23;20431;-66
2022/03/22 03:27:15;;;;;;;3.90;3.70;;;;;;;7.34;55.21;102626.50;6116323;23;20049;-66
2022/03/22 03:29:42;;;;;;;5.35;5.15;;;;;;;7.32;55.72;102663.06;6082341;23;20089;-64
2022/03/22 03:32:09;;;;;;;4.93;4.63;;;;;;;6.17;55.03;102431.56;6111757;23;20037;-66
2022/03/22 03:34:36;;;;;;;4.15;3.95;;;;;;;7.25;55.19;102623.94;6089844;23;20097;-65
2022/03/22 03:37:03;;;;;;;3.90;3.75;;;;;;;7.18;55.18;102613.53;6104565;23;20343;-64
2022/03/22 03:39:29;;;;;;;6.95;6.55;;;;;;;6.19;55.40;102459.38;6069765;23;20017;-64
2022/03/22 03:41:59;;;;;;;4.70;4.30;;;;;;;7.23;55.68;102642.22;6076785;23;20061;-65
2022/03/22 03:47:13;;;;;;;3.85;3.72;;;;;;;7.02;56.18;102611.06;6079544;23;20096;-67
2022/03/22 03:49:43;;;;;;;5.93;5.63;;;;;;;7.15;56.21;102655.31;6067217;23;20029;-67
2022/03/22 03:52:13;;;;;;;4.43;4.22;;;;;;;6.81;56.77;102604.22;6075319;23;20073;-64
2022/03/22 03:54:40;;;;;;;5.63;5.38;;;;;;;7.01;56.80;102651.09;6083099;23;20069;-67
2022/03/22 03:57:07;;;;;;;6.70;4.07;;;;;;;5.70;55.86;102456.09;6076265;23;20018;-64
2022/03/22 03:59:35;;;;;;;6.07;5.78;;;;;;;6.80;56.06;102637.28;6049280;23;20369;-65
2022/03/22 04:02:03;;;;;;;4.60;4.40;;;;;;;6.83;56.18;102660.72;6093616;23;20054;-67
2022/03/22 04:04:30;;;;;;;5.50;5.30;;;;;;;6.78;56.40;102654.69;6082350;23;20010;-67
2022/03/22 04:06:57;;;;;;;4.28;4.07;;;;;;;5.47;56.93;102440.53;6100485;23;20006;-67
2022/03/22 04:09:24;;;;;;;4.07;3.88;;;;;;;5.69;56.91;102463.06;6055374;23;20026;-65
2022/03/22 04:11:50;;;;;;;3.97;3.67;;;;;;;5.44;56.59;102432.75;6081139;23;21097;-65
2022/03/22 04:14:17;;;;;;;3.60;3.50;;;;;;;5.32;56.54;102433.63;6080022;23;20463;-65
2022/03/22 04:16:43;;;;;;;5.40;4.95;;;;;;;5.33;57.17;102431.03;6077687;23;20025;-64
2022/03/22 04:19:10;;;;;;;4.18;3.97;;;;;;;6.62;57.05;102659.09;6087126;23;20022;-64
2022/03/22 04:21:37;;;;;;;7.85;5.65;;;;;;;6.56;56.41;102661.75;6067596;23;20033;-67
2022/03/22 04:24:08;;;;;;;3.55;3.45;;;;;;;6.48;57.29;102671.34;6092483;23;20033;-65
2022/03/22 04:26:43;;;;;;;6.15;5.85;;;;;;;6.41;57.90;102664.38;6078220;23;20030;-67
2022/03/22 04:34:44;;;;;;;4.10;3.85;;;;;;;5.26;57.19;102504.78;6084739;23;20049;-65
2022/03/22 04:37:13;;;;;;;4.20;4.00;;;;;;;6.32;57.19;102675.72;6070303;23;20033;-65
2022/03/22 04:39:46;;;;;;;7.30;5.93;;;;;;;6.34;57.87;102677.44;6101686;23;20042;-66
2022/03/22 04:42:14;;;;;;;8.10;4.30;;;;;;;6.33;56.84;102674.84;6047688;23;20049;-65
2022/03/22 04:44:42;;;;;;;6.53;6.20;;;;;;;6.26;57.11;102676.59;6086798;23;20294;-65
2022/03/22 04:47:09;;;;;;;4.13;3.92;;;;;;;4.95;57.18;102468.38;6047818;23;20027;-65
2022/03/22 04:49:35;;;;;;;7.22;6.80;;;;;;;6.13;58.08;102674.88;6085694;23;20018;-64
2022/03/22 04:57:36;;;;;;;3.80;3.60;;;;;;;5.62;58.17;102604.56;6086106;23;20089;-65
2022/03/22 05:00:05;;;;;;;5.40;5.10;;;;;;;5.99;57.84;102667.97;6088437;23;20494;-66
2022/03/22 05:02:32;;;;;;;5.85;5.55;;;;;;;5.90;57.54;102667.94;6081915;23;20041;-66
2022/03/22 05:05:00;;;;;;;3.85;3.70;;;;;;;5.66;57.70;102631.50;6091239;23;20076;-65
2022/03/22 05:07:26;;;;;;;3.92;3.78;;;;;;;4.96;57.41;102529.94;6063767;23;20010;-65
2022/03/22 05:09:53;;;;;;;4.32;4.13;;;;;;;5.95;56.81;102686.19;6079654;23;20097;-66
2022/03/22 05:12:19;;;;;;;5.22;4.85;;;;;;;5.90;58.01;102687.94;6075100;23;20407;-66
2022/03/22 05:14:50;;;;;;;4.35;4.15;;;;;;;5.87;57.19;102680.09;6072868;23;20012;-65
2022/03/22 05:17:21;;;;;;;4.30;4.10;;;;;;;5.68;58.23;102653.19;6081600;23;20025;-65
2022/03/22 05:19:49;;;;;;;3.45;3.35;;;;;;;4.50;58.08;102464.03;6065293;23;20041;-65
2022/03/22 05:22:17;;;;;;;3.90;3.70;;;;;;;5.78;57.89;102691.41;6032191;23;20050;-65
2022/03/22 05:24:45;;;;;;;4.18;3.97;;;;;;;5.76;58.51;102690.53;6073334;23;20492;-65
2022/03/22 05:27:14;;;;;;;3.58;3.47;;;;;;;5.66;59.39;102684.44;6068241;23;20030;-65
2022/03/22 05:29:40;;;;;;;6.05;5.72;;;;;;;5.50;59.64;102665.34;6067890;23;20085;-65
2022/03/22 05:32:07;;;;;;;3.70;3.50;;;;;;;5.69;58.73;102699.19;6078334;23;20035;-65
2022/03/22 05:34:34;;;;;;;5.38;5.15;;;;;;;4.38;59.07;102468.31;6084369;23;20014;-65
2022/03/22 05:37:00;;;;;;;4.20;4.00;;;;;;;5.71;59.22;102700.06;6048661;23;20042;-65
2022/03/22 05:39:27;;;;;;;3.90;3.70;;;;;;;5.69;58.23;102701.81;6080009;23;20285;-65
2022/03/22 05:41:54;;;;;;;3.45;3.35;;;;;;;5.68;59.16;102700.09;6086661;23;20037;-65
2022/03/22 05:44:21;;;;;;;3.70;3.60;;;;;;;5.69;58.99;102700.09;6088400;23;20065;-66
2022/03/22 05:46:47;;;;;;;3.60;3.50;;;;;;;5.72;59.07;102709.63;6077672;23;20074;-67
2022/03/22 05:49:14;;;;;;;3.80;3.67;;;;;;;5.49;59.07;102673.16;6089283;23;20018;-65
2022/03/22 05:51:40;;;;;;;5.78;5.50;;;;;;;4.61;58.26;102524.72;6090315;23;20040;-67
2022/03/22 05:54:07;;;;;;;3.50;3.40;;;;;;;4.63;57.86;102519.50;6082284;23;20006;-65
2022/03/22 05:56:33;;;;;;;5.50;5.30;;;;;;;5.99;58.20;102719.22;6104417;23;20051;-66
2022/03/22 05:59:00;;;;;;;3.78;3.58;;;;;;;5.97;57.23;102706.19;6086274;23;20038;-66
2022/03/22 06:01:27;;;;;;;3.90;3.75;;;;;;;6.12;57.31;102759.19;6078926;23;20021;-66
2022/03/22 06:03:54;;;;;;;3.95;3.75;;;;;;;4.93;57.80;102503.06;6081915;23;20575;-67
2022/03/22 06:06:21;;;;;;;3.40;3.30;;;;;;;6.15;57.35;102692.28;6092757;23;20036;-67
2022/03/22 06:08:49;;;;;;;4.53;4.32;;;;;;;6.30;57.04;102703.56;6078257;23;20607;-67
2022/03/22 06:11:17;;;;;;;4.00;3.80;;;;;;;6.10;56.92;102657.53;6070743;23;20030;-66
2022/03/22 06:13:44;;;;;;;6.05;5.75;;;;;;;6.50;55.62;102711.31;6082918;23;20640;-67
2022/03/22 06:16:10;;;;;;;3.88;3.70;;;;;;;5.65;55.68;102547.25;6057917;23;20262;-68
2022/03/22 06:18:36;;;;;;;6.78;6.47;;;;;;;6.69;54.51;102691.25;6084584;23;20025;-68
2022/03/22 06:21:03;;;;;;;3.80;3.70;;;;;;;6.90;54.47;102732.91;6090755;23;20018;-68
2022/03/22 06:23:30;;;;;;;6.53;6.22;;;;;;;5.94;54.29;102565.44;6078042;23;20074;-67
2022/03/22 06:25:56;;;;;;;4.72;4.50;;;;;;;5.25;54.38;102450.13;6090482;23;20112;-67
2022/03/22 06:28:23;;;;;;;4.05;3.85;;;;;;;6.85;54.13;102686.84;6044416;23;20053;-67
2022/03/22 06:30:50;;;;;;;4.05;3.88;;;;;;;7.14;52.90;102725.84;6075639;23;20017;-67
2022/03/22 06:33:17;;;;;;;5.20;4.25;;;;;;;7.13;53.30;102711.06;6084758;23;20246;-68
2022/03/22 06:35:45;;;;;;;3.83;3.70;;;;;;;7.29;53.67;102730.13;6073415;23;20130;-66
2022/03/22 06:38:12;;;;;;;4.30;4.00;;;;;;;6.01;53.49;102506.38;6077129;23;20263;-66
2022/03/22 06:40:39;;;;;;;5.82;5.53;;;;;;;7.37;53.07;102718.75;6055648;23;20121;-66
2022/03/22 06:43:08;;;;;;;5.20;4.90;;;;;;;7.45;51.76;102723.06;6052491;23;20032;-66
2022/03/22 06:45:36;;;;;;;4.00;3.80;;;;;;;7.41;52.88;102703.91;6066044;23;20034;-65
2022/03/22 06:48:04;;;;;;;4.70;4.45;;;;;;;7.73;51.23;102732.44;6048470;23;20082;-65
2022/03/22 06:50:31;;;;;;;7.53;7.05;;;;;;;7.79;50.21;102732.38;6048342;23;20026;-66
2022/03/22 06:52:58;;;;;;;5.10;4.90;;;;;;;7.81;50.48;102715.81;6024848;23;20508;-66
2022/03/22 06:55:25;;;;;;;4.03;3.83;;;;;;;7.84;50.54;102707.94;6051754;23;20516;-66
2022/03/22 06:57:56;;;;;;;21.88;4.28;;;;;;;6.43;50.62;102457.47;6033350;23;20558;-66
2022/03/22 07:00:22;;;;;;;4.45;4.25;;;;;;;7.37;49.27;102611.63;6075277;23;20088;-67
2022/03/22 07:02:49;;;;;;;5.15;4.85;;;;;;;8.34;49.38;102738.88;6047847;23;20028;-65
2022/03/22 07:05:16;;;;;;;3.60;3.50;;;;;;;8.45;49.75;102738.78;6053027;23;20214;-64
2022/03/22 07:07:43;;;;;;;5.45;5.25;;;;;;;8.59;48.14;102741.25;6048391;23;20026;-68
2022/03/22 07:10:12;;;;;;;4.70;4.40;;;;;;;8.75;48.39;102750.66;6054835;23;20022;-65
2022/03/22 07:12:51;;;;;;;6.38;6.07;;;;;;;8.72;47.15;102734.13;6039967;23;20155;-68
2022/03/22 07:15:30;;;;;;;4.47;4.28;;;;;;;9.03;46.86;102745.09;6051184;23;20026;-65
2022/03/22 07:17:58;;;;;;;4.25;4.05;;;;;;;9.16;46.92;102751.94;6027562;23;20075;-65
2022/03/22 07:20:25;;;;;;;4.85;4.55;;;;;;;9.26;46.03;102749.16;6051993;23;20435;-66
2022/03/22 07:22:57;;;;;;;4.75;4.55;;;;;;;9.38;45.32;102749.00;6055562;23;20249;-65
2022/03/22 07:25:23;;;;;;;4.32;4.13;;;;;;;9.24;45.65;102716.88;6073141;23;20097;-66
2022/03/22 07:27:50;;;;;;;4.57;4.38;;;;;;;8.35;44.74;102527.84;6048606;23;20051;-68
2022/03/22 07:30:16;;;;;;;4.25;4.05;;;;;;;8.87;44.16;102589.09;6055524;23;20106;-66
2022/03/22 07:32:44;;;;;;;7.03;6.55;;;;;;;9.93;44.35;102752.53;6033991;23;20144;-66
2022/03/22 07:35:12;;;;;;;4.85;4.65;;;;;;;10.05;45.04;102751.47;6051167;23;20018;-66
2022/03/22 07:37:39;;;;;;;5.57;5.38;;;;;;;10.16;42.66;102741.63;6045042;23;20513;-65
2022/03/22 07:40:08;;;;;;;4.10;3.90;;;;;;;10.17;42.19;102736.38;6060998;23;20021;-66
2022/03/22 07:42:34;;;;;;;5.90;5.60;;;;;;;9.33;43.10;102597.09;6027337;23;20112;-66
2022/03/22 07:45:04;;;;;;;4.22;4.03;;;;;;;10.40;42.84;102747.38;6051096;23;20010;-66
2022/03/22 07:47:31;;;;;;;7.05;6.68;;;;;;;10.59;42.25;102751.41;6049184;23;20238;-66
2022/03/22 07:53:00;;;;;;;6.03;5.72;;;;;;;10.69;41.19;102747.69;6050495;23;20191;-65
2022/03/22 07:55:29;;;;;;;5.15;4.95;;;;;;;9.43;40.48;102528.81;6050133;23;20030;-65
2022/03/22 07:57:57;;;;;;;4.50;4.30;;;;;;;10.97;40.77;102750.63;6059726;23;20006;-65
2022/03/22 08:00:26;;;;;;;4.85;4.30;;;;;;;9.89;41.22;102567.28;6067715;23;20006;-65
2022/03/22 08:02:57;;;;;;;4.97;4.78;;;;;;;11.16;40.87;102755.47;6045332;23;20014;-67
2022/03/22 08:05:25;;;;;;;5.20;4.90;;;;;;;11.33;40.50;102755.13;6071554;23;20329;-66
2022/03/22 08:07:53;;;;;;;4.85;4.65;;;;;;;11.37;39.82;102762.91;6072109;23;20093;-66
2022/03/22 08:10:21;;;;;;;4.80;4.50;;;;;;;11.46;39.10;102753.94;6051780;23;20085;-66
2022/03/22 08:12:48;;;;;;;4.53;4.32;;;;;;;11.62;38.84;102753.59;6020453;23;20041;-65
2022/03/22 08:15:16;;;;;;;4.40;4.20;;;;;;;11.68;38.72;102759.56;6056181;23;20089;-66
2022/03/22 08:17:42;;;;;;;4.60;4.40;;;;;;;11.68;37.60;102756.06;6063896;23;20081;-66
2022/03/22 08:20:10;;;;;;;5.57;5.28;;;;;;;11.72;37.64;102763.84;6060532;23;20483;-66
2022/03/22 08:22:46;;;;;;;4.65;4.45;;;;;;;11.95;37.62;102754.56;6038535;23;20445;-66
2022/03/22 08:25:48;;;;;;;4.20;4.00;;;;;;;11.66;35.96;102698.22;6074302;23;20081;-66
2022/03/22 08:28:29;;;;;;;4.80;4.60;;;;;;;12.11;36.83;102765.59;6054622;23;20026;-66
2022/03/22 08:31:02;;;;;;;4.50;4.30;;;;;;;11.26;36.09;102630.84;6077947;23;20022;-66
2022/03/22 08:33:43;;;;;;;5.07;4.80;;;;;;;12.06;35.75;102731.47;6053119;23;20066;-66
2022/03/22 08:36:09;;;;;;;5.28;4.97;;;;;;;12.33;35.80;102747.47;6061966;23;20023;-65
2022/03/22 08:38:35;;;;;;;6.05;5.75;;;;;;;12.46;35.72;102769.03;6047510;23;20061;-65
2022/03/22 08:41:03;;;;;;;4.60;4.40;;;;;;;12.41;34.39;102749.84;6094485;23;21627;-69
2022/03/22 08:43:30;;;;;;;6.15;5.82;;;;;;;12.13;35.98;102697.97;6090959;23;20676;-67
2022/03/22 08:45:57;;;;;;;5.45;5.03;;;;;;;12.63;34.52;102758.03;6107230;23;20034;-67
2022/03/22 08:48:25;;;;;;;5.18;4.88;;;;;;;12.52;34.32;102726.75;6090760;23;20091;-68
2022/03/22 08:50:53;;;;;;;4.93;4.72;;;;;;;12.70;34.41;102768.38;6086418;23;20020;-67
2022/03/22 08:53:20;;;;;;;5.80;5.50;;;;;;;12.92;33.45;102760.72;6076162;23;20054;-67
2022/03/22 08:55:51;;;;;;;4.60;4.40;;;;;;;11.77;33.66;102567.31;6094798;23;20085;-66
2022/03/22 08:58:18;;;;;;;5.18;4.95;;;;;;;13.03;34.44;102755.16;6070823;23;20095;-66
2022/03/22 09:00:48;;;;;;;6.25;5.95;;;;;;;11.78;34.18;102512.94;6079225;23;20537;-66
2022/03/22 09:03:15;;;;;;;5.20;4.80;;;;;;;12.49;33.59;102606.56;6085158;23;20032;-67
2022/03/22 09:08:27;;;;;;;5.85;5.53;;;;;;;13.56;33.76;102752.66;6087538;23;20123;-67
2022/03/22 09:10:54;;;;;;;5.45;5.05;;;;;;;13.62;32.80;102758.66;6089193;23;20085;-65
2022/03/22 09:13:21;;;;;;;5.72;5.43;;;;;;;13.50;33.06;102717.69;6071000;23;20097;-67
2022/03/22 09:15:51;;;;;;;5.97;5.68;;;;;;;13.71;33.68;102743.41;6085716;23;20392;-67
2022/03/22 09:18:21;;;;;;;4.78;4.57;;;;;;;13.67;33.91;102722.41;6079399;23;20471;-66
2022/03/22 09:20:48;;;;;;;5.45;5.15;;;;;;;14.03;33.18;102748.50;6082621;23;20092;-66
2022/03/22 09:23:15;;;;;;;6.03;5.22;;;;;;;14.02;32.49;102752.06;6089706;23;20030;-66
2022/03/22 09:25:43;;;;;;;6.97;6.57;;;;;;;14.11;33.41;102741.19;6082132;23;20517;-66
2022/03/22 09:28:10;;;;;;;5.35;5.00;;;;;;;14.21;32.75;102739.94;6088867;23;20066;-66
2022/03/22 09:30:38;;;;;;;7.18;6.78;;;;;;;14.41;32.34;102754.25;6083319;23;20112;-66
2022/03/22 09:33:07;;;;;;;5.90;5.50;;;;;;;14.54;31.68;102740.53;6090951;23;20013;-66
2022/03/22 09:35:35;;;;;;;6.75;6.35;;;;;;;14.71;31.96;102739.97;6080913;23;20096;-67
2022/03/22 09:38:02;;;;;;;5.25;4.95;;;;;;;14.71;31.04;102723.22;6085654;23;20548;-66
2022/03/22 09:40:30;;;;;;;6.38;6.00;;;;;;;14.85;31.04;102731.50;6091482;23;20505;-67
2022/03/22 09:42:56;;;;;;;6.15;5.75;;;;;;;14.81;31.03;102740.47;6083371;23;20015;-66
2022/03/22 09:45:31;;;;;;;5.03;4.78;;;;;;;14.88;30.32;102704.09;6087978;23;20026;-67
2022/03/22 09:47:59;;;;;;;8.57;6.50;;;;;;;13.74;29.63;102537.44;6087570;23;20005;-66
2022/03/22 09:53:15;;;;;;;6.18;5.75;;;;;;;15.22;30.57;102702.78;6087289;23;20046;-66
2022/03/22 09:55:42;;;;;;;7.78;7.28;;;;;;;15.42;30.21;102716.06;6081599;23;20081;-66
2022/03/22 09:58:09;;;;;;;5.80;5.50;;;;;;;15.50;30.80;102699.91;6087691;23;20017;-66
2022/03/22 10:00:38;;;;;;;7.07;6.68;;;;;;;15.75;30.23;102710.34;6083778;23;20061;-66
2022/03/22 10:03:05;;;;;;;5.30;5.00;;;;;;;15.98;29.36;102714.69;6083570;23;20061;-66
2022/03/22 10:05:32;;;;;;;6.72;6.32;;;;;;;15.93;29.46;102724.59;6089533;23;20006;-66
2022/03/22 10:08:00;;;;;;;5.25;4.95;;;;;;;16.11;29.29;102723.81;6084060;23;20511;-66
2022/03/22 10:10:28;;;;;;;6.47;6.13;;;;;;;16.07;27.37;102708.97;6084027;23;20579;-66
2022/03/22 10:12:57;;;;;;;5.38;5.15;;;;;;;15.27;27.87;102587.91;6067611;23;20060;-67
2022/03/22 10:15:35;;;;;;;6.65;6.15;;;;;;;16.01;28.72;102719.84;6083447;23;20548;-65
2022/03/22 10:18:06;;;;;;;6.03;5.68;;;;;;;16.02;26.34;102728.66;6085944;23;20052;-66
2022/03/22 10:20:36;;;;;;;7.03;6.68;;;;;;;16.08;26.74;102720.44;6081736;23;20025;-66
2022/03/22 10:23:06;;;;;;;5.20;4.90;;;;;;;16.04;25.88;102725.00;6084680;23;20596;-66
2022/03/22 10:25:37;;;;;;;6.75;6.38;;;;;;;16.08;26.99;102739.84;6088112;23;20415;-67
2022/03/22 10:28:06;;;;;;;6.03;5.57;;;;;;;16.34;27.19;102709.56;6081850;23;20475;-66
2022/03/22 10:30:34;;;;;;;6.88;6.57;;;;;;;15.21;27.15;102494.75;6082221;23;20425;-66
2022/03/22 10:33:02;;;;;;;6.10;5.80;;;;;;;16.51;25.13;102716.75;6088868;23;20089;-66
2022/03/22 10:35:31;;;;;;;5.60;5.30;;;;;;;16.35;26.02;102690.06;6082058;23;20407;-66
2022/03/22 10:38:01;;;;;;;5.13;4.85;;;;;;;16.31;26.43;102679.69;6054053;23;20045;-66
2022/03/22 10:40:41;;;;;;;7.38;6.88;;;;;;;16.63;24.67;102718.00;6085716;23;20034;-66
2022/03/22 10:43:14;;;;;;;6.47;6.07;;;;;;;16.45;26.05;102677.28;6091817;23;20030;-66
2022/03/22 10:45:42;;;;;;;7.50;7.00;;;;;;;15.62;25.81;102550.31;6084419;23;20013;-68
2022/03/22 10:48:08;;;;;;;5.75;5.45;;;;;;;16.68;26.02;102704.53;6045744;23;20031;-68
2022/03/22 10:50:38;;;;;;;7.82;7.43;;;;;;;15.85;26.17;102536.94;6079117;23;20097;-68
2022/03/22 10:53:05;;;;;;;6.13;5.82;;;;;;;16.44;26.02;102593.41;6086864;23;20024;-68
2022/03/22 10:55:32;;;;;;;7.63;7.22;;;;;;;17.35;25.71;102701.34;6086196;23;20024;-68
2022/03/22 10:58:00;;;;;;;6.63;6.15;;;;;;;17.21;25.69;102705.63;6089473;23;20024;-68
2022/03/22 11:00:28;;;;;;;6.93;6.53;;;;;;;17.37;25.22;102677.41;6081316;23;20093;-68
2022/03/22 11:02:57;;;;;;;5.55;5.15;;;;;;;17.56;24.91;102703.91;6082390;23;20364;-67
2022/03/22 11:05:26;;;;;;;5.20;5.00;;;;;;;17.19;24.81;102642.00;6084249;23;20486;-68
2022/03/22 11:07:57;;;;;;;5.15;4.95;;;;;;;17.12;24.68;102635.31;6066510;23;20014;-68
2022/03/22 11:10:28;;;;;;;6.43;5.95;;;;;;;17.57;24.52;102691.50;6084236;23;20170;-68
2022/03/22 11:12:59;;;;;;;5.50;5.20;;;;;;;16.66;24.96;102524.34;6071753;23;20337;-68
2022/03/22 11:15:30;;;;;;;6.15;5.63;;;;;;;16.03;24.24;102455.78;6101902;23;20108;-68
2022/03/22 11:17:57;;;;;;;6.20;5.80;;;;;;;17.74;23.94;102691.50;6086953;23;20056;-66
2022/03/22 11:20:25;;;;;;;5.95;5.45;;;;;;;17.70;24.30;102671.31;6078262;23;20051;-66
2022/03/22 11:22:55;;;;;;;5.50;5.20;;;;;;;17.81;24.61;102679.63;6082867;23;20174;-67
2022/03/22 11:25:35;;;;;;;5.93;5.63;;;;;;;18.02;24.51;102676.81;6087102;23;20434;-66
2022/03/22 11:28:11;;;;;;;6.80;6.20;;;;;;;18.05;23.99;102681.97;6082208;23;20077;-66
2022/03/22 11:30:41;;;;;;;7.00;6.70;;;;;;;17.67;23.39;102664.38;6081014;23;20669;-66
2022/03/22 11:36:12;;;;;;;6.45;5.95;;;;;;;18.23;23.92;102669.53;6080465;23;20032;-67
2022/03/22 11:38:41;;;;;;;7.32;6.93;;;;;;;18.59;25.07;102661.34;6078583;23;20029;-66
2022/03/22 11:44:13;;;;;;;6.25;5.75;;;;;;;18.23;23.03;102664.22;6064651;23;20014;-67
2022/03/22 11:46:40;;;;;;;8.05;7.65;;;;;;;18.10;23.28;102662.22;6050120;23;20030;-66
2022/03/22 11:49:47;;;;;;;6.95;6.30;;;;;;;17.98;23.88;102648.69;6064677;23;20030;-66
2022/03/22 11:52:13;;;;;;;6.00;5.70;;;;;;;17.72;24.24;102650.88;6037188;23;20498;-66
2022/03/22 11:54:40;;;;;;;8.38;7.78;;;;;;;17.90;24.27;102649.97;6055922;23;20022;-66
2022/03/22 11:57:08;;;;;;;6.57;6.20;;;;;;;17.52;23.12;102583.72;6067059;23;20034;-66
2022/03/22 11:59:42;;;;;;;6.97;6.60;;;;;;;17.75;23.55;102642.75;6050641;23;20037;-66
2022/03/22 12:02:15;;;;;;;6.60;6.20;;;;;;;17.64;24.37;102645.09;6062548;23;20026;-67
2022/03/22 12:04:50;;;;;;;8.20;7.68;;;;;;;17.86;24.94;102634.25;6022791;23;20085;-66
2022/03/22 12:07:37;;;;;;;6.38;5.97;;;;;;;18.04;24.28;102617.38;6053239;23;20048;-66
2022/03/22 12:10:15;;;;;;;6.35;5.85;;;;;;;18.37;24.39;102626.25;6062225;23;20038;-66